sensor_id;sensor_type;location;lat;lon;timestamp;P1;durP1;ratioP1;P2;durP2;ratioP2
45686;SDS011;31399;51.176;7.776;2023-05-29T00:02:02;10.55;;;3.58;;
45686;SDS011;31399;51.176;7.776;2023-05-29T00:04:29;8.77;;;3.08;;
45686;SDS011;31399;51.176;7.776;2023-05-29T00:06:56;9.40;;;3.78;;
45686;SDS011;31399;51.176;7.776;2023-05-29T00:09:22;6.72;;;2.60;;
45686;SDS011;31399;51.176;7.776;2023-05-29T00:11:49;6.10;;;3.15;;
45686;SDS011;31399;51.176;7.776;2023-05-29T00:14:19;11.38;;;3.38;;
45686;SDS011;31399;51.176;7.776;2023-05-29T00:16:46;8.32;;;2.85;;
45686;SDS011;31399;51.176;7.776;2023-05-29T00:19:16;11.95;;;3.83;;
45686;SDS011;31399;51.176;7.776;2023-05-29T00:21:43;10.43;;;3.60;;
45686;SDS011;31399;51.176;7.776;2023-05-29T00:24:10;8.20;;;3.38;;
45686;SDS011;31399;51.176;7.776;2023-05-29T00:26:36;5.00;;;3.00;;
45686;SDS011;31399;51.176;7.776;2023-05-29T00:29:03;10.15;;;3.78;;
45686;SDS011;31399;51.176;7.776;2023-05-29T00:31:30;8.68;;;3.30;;
45686;SDS011;31399;51.176;7.776;2023-05-29T00:33:57;6.50;;;2.83;;
45686;SDS011;31399;51.176;7.776;2023-05-29T00:36:24;8.60;;;3.47;;
45686;SDS011;31399;51.176;7.776;2023-05-29T00:38:51;9.50;;;3.47;;
45686;SDS011;31399;51.176;7.776;2023-05-29T00:41:18;7.60;;;3.05;;
45686;SDS011;31399;51.176;7.776;2023-05-29T00:43:44;10.18;;;3.72;;
45686;SDS011;31399;51.176;7.776;2023-05-29T00:46:12;8.52;;;3.42;;
45686;SDS011;31399;51.176;7.776;2023-05-29T00:48:41;6.50;;;3.88;;
45686;SDS011;31399;51.176;7.776;2023-05-29T00:51:08;7.28;;;3.75;;
45686;SDS011;31399;51.176;7.776;2023-05-29T00:53:35;9.93;;;4.07;;
45686;SDS011;31399;51.176;7.776;2023-05-29T00:56:02;8.35;;;3.17;;
45686;SDS011;31399;51.176;7.776;2023-05-29T00:58:30;12.98;;;3.72;;
45686;SDS011;31399;51.176;7.776;2023-05-29T01:00:57;8.57;;;3.25;;
45686;SDS011;31399;51.176;7.776;2023-05-29T01:03:24;7.85;;;3.80;;
45686;SDS011;31399;51.176;7.776;2023-05-29T01:05:51;9.20;;;3.50;;
45686;SDS011;31399;51.176;7.776;2023-05-29T01:08:18;9.88;;;4.07;;
45686;SDS011;31399;51.176;7.776;2023-05-29T01:10:45;10.63;;;4.28;;
45686;SDS011;31399;51.176;7.776;2023-05-29T01:13:16;5.28;;;3.15;;
45686;SDS011;31399;51.176;7.776;2023-05-29T01:15:49;12.02;;;4.82;;
45686;SDS011;31399;51.176;7.776;2023-05-29T01:27:05;9.98;;;4.68;;
45686;SDS011;31399;51.176;7.776;2023-05-29T01:29:33;13.23;;;4.72;;
45686;SDS011;31399;51.176;7.776;2023-05-29T01:32:01;13.45;;;4.40;;
45686;SDS011;31399;51.176;7.776;2023-05-29T01:34:28;8.90;;;3.60;;
45686;SDS011;31399;51.176;7.776;2023-05-29T01:36:55;10.52;;;3.97;;
45686;SDS011;31399;51.176;7.776;2023-05-29T01:39:22;10.15;;;4.30;;
45686;SDS011;31399;51.176;7.776;2023-05-29T01:41:49;5.38;;;3.55;;
45686;SDS011;31399;51.176;7.776;2023-05-29T01:44:17;7.10;;;3.33;;
45686;SDS011;31399;51.176;7.776;2023-05-29T01:46:44;8.63;;;4.03;;
45686;SDS011;31399;51.176;7.776;2023-05-29T01:49:12;7.75;;;3.42;;
45686;SDS011;31399;51.176;7.776;2023-05-29T01:51:39;9.02;;;2.95;;
45686;SDS011;31399;51.176;7.776;2023-05-29T01:54:06;10.23;;;3.70;;
45686;SDS011;31399;51.176;7.776;2023-05-29T01:56:33;7.28;;;3.75;;
45686;SDS011;31399;51.176;7.776;2023-05-29T01:59:01;7.60;;;3.70;;
45686;SDS011;31399;51.176;7.776;2023-05-29T02:01:29;10.10;;;4.03;;
45686;SDS011;31399;51.176;7.776;2023-05-29T02:03:56;8.55;;;3.67;;
45686;SDS011;31399;51.176;7.776;2023-05-29T02:06:22;5.85;;;2.72;;
45686;SDS011;31399;51.176;7.776;2023-05-29T02:08:49;7.45;;;3.53;;
45686;SDS011;31399;51.176;7.776;2023-05-29T02:11:16;7.93;;;4.15;;
45686;SDS011;31399;51.176;7.776;2023-05-29T02:13:43;5.82;;;2.72;;
45686;SDS011;31399;51.176;7.776;2023-05-29T02:16:10;8.98;;;3.60;;
45686;SDS011;31399;51.176;7.776;2023-05-29T02:18:36;6.38;;;3.10;;
45686;SDS011;31399;51.176;7.776;2023-05-29T02:21:03;11.50;;;3.63;;
45686;SDS011;31399;51.176;7.776;2023-05-29T02:23:29;8.82;;;3.78;;
45686;SDS011;31399;51.176;7.776;2023-05-29T02:25:56;14.38;;;4.65;;
45686;SDS011;31399;51.176;7.776;2023-05-29T02:28:23;15.68;;;4.40;;
45686;SDS011;31399;51.176;7.776;2023-05-29T02:30:50;8.82;;;3.88;;
45686;SDS011;31399;51.176;7.776;2023-05-29T02:33:17;15.52;;;3.90;;
45686;SDS011;31399;51.176;7.776;2023-05-29T02:35:43;8.70;;;4.22;;
45686;SDS011;31399;51.176;7.776;2023-05-29T02:38:10;12.27;;;5.13;;
45686;SDS011;31399;51.176;7.776;2023-05-29T02:40:37;9.65;;;4.97;;
45686;SDS011;31399;51.176;7.776;2023-05-29T02:43:04;11.80;;;5.90;;
45686;SDS011;31399;51.176;7.776;2023-05-29T02:45:31;15.93;;;6.30;;
45686;SDS011;31399;51.176;7.776;2023-05-29T02:47:58;17.98;;;5.90;;
45686;SDS011;31399;51.176;7.776;2023-05-29T02:50:25;17.30;;;6.05;;
45686;SDS011;31399;51.176;7.776;2023-05-29T02:52:52;14.73;;;6.13;;
45686;SDS011;31399;51.176;7.776;2023-05-29T02:55:19;13.70;;;6.13;;
45686;SDS011;31399;51.176;7.776;2023-05-29T02:57:45;15.55;;;6.28;;
45686;SDS011;31399;51.176;7.776;2023-05-29T03:00:15;16.67;;;6.28;;
45686;SDS011;31399;51.176;7.776;2023-05-29T03:02:41;12.85;;;6.40;;
45686;SDS011;31399;51.176;7.776;2023-05-29T03:05:08;11.38;;;6.18;;
45686;SDS011;31399;51.176;7.776;2023-05-29T03:07:35;13.60;;;6.18;;
45686;SDS011;31399;51.176;7.776;2023-05-29T03:10:02;13.20;;;6.10;;
45686;SDS011;31399;51.176;7.776;2023-05-29T03:12:30;16.00;;;6.82;;
45686;SDS011;31399;51.176;7.776;2023-05-29T03:14:56;20.20;;;5.80;;
45686;SDS011;31399;51.176;7.776;2023-05-29T03:17:23;17.00;;;6.45;;
45686;SDS011;31399;51.176;7.776;2023-05-29T03:19:50;19.88;;;6.88;;
45686;SDS011;31399;51.176;7.776;2023-05-29T03:22:17;20.17;;;6.35;;
45686;SDS011;31399;51.176;7.776;2023-05-29T03:24:44;18.20;;;6.60;;
45686;SDS011;31399;51.176;7.776;2023-05-29T03:27:11;13.40;;;6.45;;
45686;SDS011;31399;51.176;7.776;2023-05-29T03:29:37;20.13;;;6.55;;
45686;SDS011;31399;51.176;7.776;2023-05-29T03:32:04;21.13;;;5.90;;
45686;SDS011;31399;51.176;7.776;2023-05-29T03:34:31;19.63;;;7.40;;
45686;SDS011;31399;51.176;7.776;2023-05-29T03:36:58;15.45;;;5.80;;
45686;SDS011;31399;51.176;7.776;2023-05-29T03:39:24;21.67;;;7.03;;
45686;SDS011;31399;51.176;7.776;2023-05-29T03:41:51;12.90;;;5.78;;
45686;SDS011;31399;51.176;7.776;2023-05-29T03:44:18;17.70;;;6.70;;
45686;SDS011;31399;51.176;7.776;2023-05-29T03:46:44;16.15;;;6.18;;
45686;SDS011;31399;51.176;7.776;2023-05-29T03:49:11;11.85;;;6.18;;
45686;SDS011;31399;51.176;7.776;2023-05-29T03:51:38;16.00;;;6.30;;
45686;SDS011;31399;51.176;7.776;2023-05-29T03:54:04;18.83;;;6.07;;
45686;SDS011;31399;51.176;7.776;2023-05-29T03:56:31;19.40;;;5.57;;
45686;SDS011;31399;51.176;7.776;2023-05-29T03:58:58;18.73;;;6.20;;
45686;SDS011;31399;51.176;7.776;2023-05-29T04:01:24;9.98;;;5.47;;
45686;SDS011;31399;51.176;7.776;2023-05-29T04:03:51;14.68;;;6.03;;
45686;SDS011;31399;51.176;7.776;2023-05-29T04:06:18;16.00;;;5.97;;
45686;SDS011;31399;51.176;7.776;2023-05-29T04:08:45;15.35;;;5.30;;
45686;SDS011;31399;51.176;7.776;2023-05-29T04:11:11;14.30;;;5.80;;
45686;SDS011;31399;51.176;7.776;2023-05-29T04:13:38;21.50;;;6.82;;
45686;SDS011;31399;51.176;7.776;2023-05-29T04:16:05;16.50;;;5.85;;
45686;SDS011;31399;51.176;7.776;2023-05-29T04:18:32;15.73;;;5.30;;
45686;SDS011;31399;51.176;7.776;2023-05-29T04:20:58;16.75;;;5.65;;
45686;SDS011;31399;51.176;7.776;2023-05-29T04:23:25;15.25;;;5.43;;
45686;SDS011;31399;51.176;7.776;2023-05-29T04:25:52;16.13;;;5.93;;
45686;SDS011;31399;51.176;7.776;2023-05-29T04:28:18;13.07;;;5.68;;
45686;SDS011;31399;51.176;7.776;2023-05-29T04:30:49;18.67;;;6.25;;
45686;SDS011;31399;51.176;7.776;2023-05-29T04:33:17;10.38;;;6.10;;
45686;SDS011;31399;51.176;7.776;2023-05-29T04:35:44;20.13;;;6.00;;
45686;SDS011;31399;51.176;7.776;2023-05-29T04:38:11;14.88;;;6.55;;
45686;SDS011;31399;51.176;7.776;2023-05-29T04:40:38;14.90;;;6.22;;
45686;SDS011;31399;51.176;7.776;2023-05-29T04:43:06;19.48;;;6.35;;
45686;SDS011;31399;51.176;7.776;2023-05-29T04:45:34;15.27;;;6.03;;
45686;SDS011;31399;51.176;7.776;2023-05-29T04:48:03;12.80;;;5.72;;
45686;SDS011;31399;51.176;7.776;2023-05-29T04:50:30;16.33;;;6.47;;
45686;SDS011;31399;51.176;7.776;2023-05-29T04:52:57;19.67;;;6.38;;
45686;SDS011;31399;51.176;7.776;2023-05-29T04:55:24;17.13;;;6.75;;
45686;SDS011;31399;51.176;7.776;2023-05-29T04:57:51;17.85;;;6.45;;
45686;SDS011;31399;51.176;7.776;2023-05-29T05:00:18;16.25;;;5.57;;
45686;SDS011;31399;51.176;7.776;2023-05-29T05:02:45;11.25;;;5.90;;
45686;SDS011;31399;51.176;7.776;2023-05-29T05:05:12;13.07;;;6.05;;
45686;SDS011;31399;51.176;7.776;2023-05-29T05:07:38;18.35;;;5.82;;
45686;SDS011;31399;51.176;7.776;2023-05-29T05:10:05;14.52;;;5.60;;
45686;SDS011;31399;51.176;7.776;2023-05-29T05:12:33;11.57;;;5.43;;
45686;SDS011;31399;51.176;7.776;2023-05-29T05:14:59;17.55;;;5.95;;
45686;SDS011;31399;51.176;7.776;2023-05-29T05:17:26;14.93;;;5.80;;
45686;SDS011;31399;51.176;7.776;2023-05-29T05:19:53;14.88;;;4.95;;
45686;SDS011;31399;51.176;7.776;2023-05-29T05:22:19;11.73;;;5.43;;
45686;SDS011;31399;51.176;7.776;2023-05-29T05:24:46;16.60;;;5.28;;
45686;SDS011;31399;51.176;7.776;2023-05-29T05:27:13;12.60;;;5.22;;
45686;SDS011;31399;51.176;7.776;2023-05-29T05:29:39;11.80;;;5.18;;
45686;SDS011;31399;51.176;7.776;2023-05-29T05:32:06;12.52;;;5.65;;
45686;SDS011;31399;51.176;7.776;2023-05-29T05:34:33;9.70;;;5.07;;
45686;SDS011;31399;51.176;7.776;2023-05-29T05:37:00;17.15;;;5.25;;
45686;SDS011;31399;51.176;7.776;2023-05-29T05:39:27;13.15;;;5.10;;
45686;SDS011;31399;51.176;7.776;2023-05-29T05:41:53;16.15;;;5.55;;
45686;SDS011;31399;51.176;7.776;2023-05-29T05:44:20;13.43;;;6.18;;
45686;SDS011;31399;51.176;7.776;2023-05-29T05:46:46;15.85;;;5.53;;
45686;SDS011;31399;51.176;7.776;2023-05-29T05:49:13;19.67;;;6.30;;
45686;SDS011;31399;51.176;7.776;2023-05-29T05:51:40;17.08;;;6.75;;
45686;SDS011;31399;51.176;7.776;2023-05-29T05:54:07;17.48;;;6.20;;
45686;SDS011;31399;51.176;7.776;2023-05-29T05:56:33;16.08;;;5.43;;
45686;SDS011;31399;51.176;7.776;2023-05-29T05:59:00;11.07;;;5.28;;
45686;SDS011;31399;51.176;7.776;2023-05-29T06:01:27;13.00;;;6.28;;
45686;SDS011;31399;51.176;7.776;2023-05-29T06:03:53;20.48;;;6.38;;
45686;SDS011;31399;51.176;7.776;2023-05-29T06:06:20;12.70;;;5.43;;
45686;SDS011;31399;51.176;7.776;2023-05-29T06:08:47;14.88;;;5.70;;
45686;SDS011;31399;51.176;7.776;2023-05-29T06:11:13;13.13;;;5.25;;
45686;SDS011;31399;51.176;7.776;2023-05-29T06:13:40;16.90;;;5.88;;
45686;SDS011;31399;51.176;7.776;2023-05-29T06:16:07;18.08;;;5.78;;
45686;SDS011;31399;51.176;7.776;2023-05-29T06:18:34;12.05;;;5.45;;
45686;SDS011;31399;51.176;7.776;2023-05-29T06:21:00;16.52;;;4.80;;
45686;SDS011;31399;51.176;7.776;2023-05-29T06:23:28;15.38;;;4.50;;
45686;SDS011;31399;51.176;7.776;2023-05-29T06:25:54;16.27;;;5.22;;
45686;SDS011;31399;51.176;7.776;2023-05-29T06:28:21;13.18;;;4.90;;
45686;SDS011;31399;51.176;7.776;2023-05-29T06:30:47;13.15;;;4.80;;
45686;SDS011;31399;51.176;7.776;2023-05-29T06:33:14;12.27;;;4.97;;
45686;SDS011;31399;51.176;7.776;2023-05-29T06:35:41;11.40;;;4.25;;
45686;SDS011;31399;51.176;7.776;2023-05-29T06:38:07;11.10;;;4.22;;
45686;SDS011;31399;51.176;7.776;2023-05-29T06:40:34;11.35;;;3.70;;
45686;SDS011;31399;51.176;7.776;2023-05-29T06:43:01;11.98;;;4.40;;
45686;SDS011;31399;51.176;7.776;2023-05-29T06:45:27;13.68;;;4.97;;
45686;SDS011;31399;51.176;7.776;2023-05-29T06:47:54;15.85;;;4.65;;
45686;SDS011;31399;51.176;7.776;2023-05-29T06:50:22;12.30;;;4.50;;
45686;SDS011;31399;51.176;7.776;2023-05-29T06:52:48;8.20;;;4.25;;
45686;SDS011;31399;51.176;7.776;2023-05-29T06:55:15;11.60;;;3.92;;
45686;SDS011;31399;51.176;7.776;2023-05-29T06:57:42;10.50;;;4.35;;
45686;SDS011;31399;51.176;7.776;2023-05-29T07:00:08;14.25;;;3.70;;
45686;SDS011;31399;51.176;7.776;2023-05-29T07:02:37;16.75;;;4.75;;
45686;SDS011;31399;51.176;7.776;2023-05-29T07:05:04;11.30;;;4.50;;
45686;SDS011;31399;51.176;7.776;2023-05-29T07:07:31;11.13;;;3.78;;
45686;SDS011;31399;51.176;7.776;2023-05-29T07:09:58;13.18;;;4.53;;
45686;SDS011;31399;51.176;7.776;2023-05-29T07:12:24;13.88;;;4.32;;
45686;SDS011;31399;51.176;7.776;2023-05-29T07:14:51;16.52;;;5.22;;
45686;SDS011;31399;51.176;7.776;2023-05-29T07:17:18;13.50;;;4.10;;
45686;SDS011;31399;51.176;7.776;2023-05-29T07:19:44;10.65;;;3.35;;
45686;SDS011;31399;51.176;7.776;2023-05-29T07:22:12;10.73;;;4.20;;
45686;SDS011;31399;51.176;7.776;2023-05-29T07:24:39;10.45;;;3.83;;
45686;SDS011;31399;51.176;7.776;2023-05-29T07:27:07;13.10;;;3.80;;
45686;SDS011;31399;51.176;7.776;2023-05-29T07:29:33;14.00;;;4.53;;
45686;SDS011;31399;51.176;7.776;2023-05-29T07:32:00;14.18;;;4.30;;
45686;SDS011;31399;51.176;7.776;2023-05-29T07:34:27;12.32;;;4.20;;
45686;SDS011;31399;51.176;7.776;2023-05-29T07:36:57;10.63;;;4.05;;
45686;SDS011;31399;51.176;7.776;2023-05-29T07:39:27;11.07;;;4.07;;
45686;SDS011;31399;51.176;7.776;2023-05-29T07:41:54;15.48;;;4.88;;
45686;SDS011;31399;51.176;7.776;2023-05-29T07:44:21;17.05;;;4.43;;
45686;SDS011;31399;51.176;7.776;2023-05-29T07:46:48;8.80;;;4.18;;
45686;SDS011;31399;51.176;7.776;2023-05-29T07:49:15;12.05;;;4.07;;
45686;SDS011;31399;51.176;7.776;2023-05-29T07:51:42;9.63;;;4.15;;
45686;SDS011;31399;51.176;7.776;2023-05-29T07:54:08;15.07;;;4.07;;
45686;SDS011;31399;51.176;7.776;2023-05-29T07:56:35;11.60;;;3.97;;
45686;SDS011;31399;51.176;7.776;2023-05-29T07:59:02;11.20;;;4.43;;
45686;SDS011;31399;51.176;7.776;2023-05-29T08:01:29;8.18;;;3.47;;
45686;SDS011;31399;51.176;7.776;2023-05-29T08:03:56;10.65;;;3.58;;
45686;SDS011;31399;51.176;7.776;2023-05-29T08:06:23;6.95;;;3.22;;
45686;SDS011;31399;51.176;7.776;2023-05-29T08:08:49;10.23;;;3.38;;
45686;SDS011;31399;51.176;7.776;2023-05-29T08:11:18;12.73;;;4.18;;
45686;SDS011;31399;51.176;7.776;2023-05-29T08:13:45;10.32;;;3.30;;
45686;SDS011;31399;51.176;7.776;2023-05-29T08:16:12;9.90;;;3.78;;
45686;SDS011;31399;51.176;7.776;2023-05-29T08:18:40;7.80;;;3.38;;
45686;SDS011;31399;51.176;7.776;2023-05-29T08:21:07;11.48;;;3.17;;
45686;SDS011;31399;51.176;7.776;2023-05-29T08:23:35;8.70;;;3.38;;
45686;SDS011;31399;51.176;7.776;2023-05-29T08:26:02;9.70;;;2.65;;
45686;SDS011;31399;51.176;7.776;2023-05-29T08:28:31;7.05;;;2.78;;
45686;SDS011;31399;51.176;7.776;2023-05-29T08:30:58;8.32;;;2.33;;
45686;SDS011;31399;51.176;7.776;2023-05-29T08:33:24;10.02;;;2.50;;
45686;SDS011;31399;51.176;7.776;2023-05-29T08:35:51;13.88;;;2.40;;
45686;SDS011;31399;51.176;7.776;2023-05-29T08:38:18;10.50;;;2.28;;
45686;SDS011;31399;51.176;7.776;2023-05-29T08:40:47;11.45;;;2.58;;
45686;SDS011;31399;51.176;7.776;2023-05-29T08:45:42;11.43;;;3.30;;
45686;SDS011;31399;51.176;7.776;2023-05-29T08:48:13;10.57;;;2.67;;
45686;SDS011;31399;51.176;7.776;2023-05-29T08:50:43;6.70;;;1.92;;
45686;SDS011;31399;51.176;7.776;2023-05-29T08:53:12;14.77;;;2.43;;
45686;SDS011;31399;51.176;7.776;2023-05-29T08:55:40;10.30;;;2.28;;
45686;SDS011;31399;51.176;7.776;2023-05-29T08:58:07;8.38;;;2.03;;
45686;SDS011;31399;51.176;7.776;2023-05-29T09:00:34;8.43;;;1.85;;
45686;SDS011;31399;51.176;7.776;2023-05-29T09:03:02;8.13;;;2.58;;
45686;SDS011;31399;51.176;7.776;2023-05-29T09:05:29;10.63;;;2.45;;
45686;SDS011;31399;51.176;7.776;2023-05-29T09:07:56;9.73;;;2.85;;
45686;SDS011;31399;51.176;7.776;2023-05-29T09:10:23;8.15;;;2.38;;
45686;SDS011;31399;51.176;7.776;2023-05-29T09:12:51;6.85;;;2.08;;
45686;SDS011;31399;51.176;7.776;2023-05-29T09:17:55;9.45;;;2.65;;
45686;SDS011;31399;51.176;7.776;2023-05-29T09:20:24;9.32;;;1.80;;
45686;SDS011;31399;51.176;7.776;2023-05-29T09:23:02;8.98;;;2.08;;
45686;SDS011;31399;51.176;7.776;2023-05-29T09:28:01;9.20;;;2.17;;
45686;SDS011;31399;51.176;7.776;2023-05-29T09:30:43;10.15;;;1.92;;
45686;SDS011;31399;51.176;7.776;2023-05-29T09:33:11;13.20;;;2.45;;
45686;SDS011;31399;51.176;7.776;2023-05-29T09:35:40;7.28;;;2.20;;
45686;SDS011;31399;51.176;7.776;2023-05-29T09:38:08;10.40;;;2.58;;
45686;SDS011;31399;51.176;7.776;2023-05-29T09:40:39;8.52;;;2.42;;
45686;SDS011;31399;51.176;7.776;2023-05-29T09:43:16;7.07;;;2.10;;
45686;SDS011;31399;51.176;7.776;2023-05-29T09:45:45;8.60;;;2.58;;
45686;SDS011;31399;51.176;7.776;2023-05-29T09:48:22;7.43;;;2.35;;
45686;SDS011;31399;51.176;7.776;2023-05-29T09:50:49;8.05;;;2.67;;
45686;SDS011;31399;51.176;7.776;2023-05-29T09:53:20;12.93;;;3.10;;
45686;SDS011;31399;51.176;7.776;2023-05-29T09:55:53;11.07;;;2.65;;
45686;SDS011;31399;51.176;7.776;2023-05-29T09:58:22;8.88;;;2.63;;
45686;SDS011;31399;51.176;7.776;2023-05-29T10:00:50;9.90;;;2.72;;
45686;SDS011;31399;51.176;7.776;2023-05-29T10:03:20;10.98;;;2.75;;
45686;SDS011;31399;51.176;7.776;2023-05-29T10:05:51;8.20;;;2.65;;
45686;SDS011;31399;51.176;7.776;2023-05-29T10:08:19;11.23;;;2.63;;
45686;SDS011;31399;51.176;7.776;2023-05-29T10:10:47;7.75;;;2.22;;
45686;SDS011;31399;51.176;7.776;2023-05-29T10:13:19;10.27;;;2.40;;
45686;SDS011;31399;51.176;7.776;2023-05-29T10:15:51;11.88;;;2.78;;
45686;SDS011;31399;51.176;7.776;2023-05-29T10:18:22;9.87;;;3.03;;
45686;SDS011;31399;51.176;7.776;2023-05-29T10:20:50;6.47;;;2.55;;
45686;SDS011;31399;51.176;7.776;2023-05-29T10:23:22;7.70;;;2.55;;
45686;SDS011;31399;51.176;7.776;2023-05-29T10:25:52;7.88;;;2.83;;
45686;SDS011;31399;51.176;7.776;2023-05-29T10:28:20;10.10;;;3.03;;
45686;SDS011;31399;51.176;7.776;2023-05-29T10:31:24;6.75;;;2.55;;
45686;SDS011;31399;51.176;7.776;2023-05-29T10:36:35;9.27;;;2.87;;
45686;SDS011;31399;51.176;7.776;2023-05-29T10:39:04;10.18;;;2.70;;
45686;SDS011;31399;51.176;7.776;2023-05-29T10:41:31;8.45;;;2.30;;
45686;SDS011;31399;51.176;7.776;2023-05-29T10:47:01;7.80;;;2.58;;
45686;SDS011;31399;51.176;7.776;2023-05-29T10:49:30;5.65;;;2.33;;
45686;SDS011;31399;51.176;7.776;2023-05-29T10:51:58;8.75;;;3.13;;
45686;SDS011;31399;51.176;7.776;2023-05-29T10:54:26;10.88;;;2.30;;
45686;SDS011;31399;51.176;7.776;2023-05-29T10:56:56;7.43;;;2.70;;
45686;SDS011;31399;51.176;7.776;2023-05-29T10:59:29;13.05;;;2.55;;
45686;SDS011;31399;51.176;7.776;2023-05-29T11:02:02;8.82;;;2.45;;
45686;SDS011;31399;51.176;7.776;2023-05-29T11:04:31;8.82;;;2.60;;
45686;SDS011;31399;51.176;7.776;2023-05-29T11:06:58;10.68;;;2.35;;
45686;SDS011;31399;51.176;7.776;2023-05-29T11:12:30;7.30;;;2.20;;
45686;SDS011;31399;51.176;7.776;2023-05-29T11:15:06;8.00;;;2.63;;
45686;SDS011;31399;51.176;7.776;2023-05-29T11:20:07;7.32;;;2.60;;
45686;SDS011;31399;51.176;7.776;2023-05-29T11:25:26;8.65;;;2.45;;
45686;SDS011;31399;51.176;7.776;2023-05-29T11:27:53;10.88;;;2.45;;
45686;SDS011;31399;51.176;7.776;2023-05-29T11:30:20;7.68;;;2.05;;
45686;SDS011;31399;51.176;7.776;2023-05-29T11:32:49;11.88;;;2.58;;
45686;SDS011;31399;51.176;7.776;2023-05-29T11:35:19;9.45;;;3.05;;
45686;SDS011;31399;51.176;7.776;2023-05-29T11:37:48;8.60;;;2.88;;
45686;SDS011;31399;51.176;7.776;2023-05-29T11:40:16;9.50;;;2.53;;
45686;SDS011;31399;51.176;7.776;2023-05-29T11:42:43;8.43;;;2.63;;
45686;SDS011;31399;51.176;7.776;2023-05-29T11:45:15;9.25;;;2.25;;
45686;SDS011;31399;51.176;7.776;2023-05-29T11:50:26;17.13;;;2.80;;
45686;SDS011;31399;51.176;7.776;2023-05-29T11:52:55;6.93;;;1.95;;
45686;SDS011;31399;51.176;7.776;2023-05-29T11:55:22;9.77;;;2.40;;
45686;SDS011;31399;51.176;7.776;2023-05-29T11:57:51;6.63;;;2.05;;
45686;SDS011;31399;51.176;7.776;2023-05-29T12:00:19;6.88;;;1.88;;
45686;SDS011;31399;51.176;7.776;2023-05-29T12:02:45;6.72;;;2.15;;
45686;SDS011;31399;51.176;7.776;2023-05-29T12:05:14;11.38;;;2.05;;
45686;SDS011;31399;51.176;7.776;2023-05-29T12:07:49;6.53;;;2.30;;
45686;SDS011;31399;51.176;7.776;2023-05-29T12:10:17;9.13;;;2.05;;
45686;SDS011;31399;51.176;7.776;2023-05-29T12:12:51;8.52;;;1.63;;
45686;SDS011;31399;51.176;7.776;2023-05-29T12:15:18;11.00;;;2.80;;
45686;SDS011;31399;51.176;7.776;2023-05-29T12:17:45;8.57;;;2.58;;
45686;SDS011;31399;51.176;7.776;2023-05-29T12:20:13;6.35;;;2.30;;
45686;SDS011;31399;51.176;7.776;2023-05-29T12:22:41;7.13;;;2.42;;
45686;SDS011;31399;51.176;7.776;2023-05-29T12:25:12;8.63;;;2.08;;
45686;SDS011;31399;51.176;7.776;2023-05-29T12:27:43;6.57;;;1.92;;
45686;SDS011;31399;51.176;7.776;2023-05-29T12:30:13;10.13;;;2.10;;
45686;SDS011;31399;51.176;7.776;2023-05-29T12:32:57;10.57;;;2.38;;
45686;SDS011;31399;51.176;7.776;2023-05-29T12:35:26;6.70;;;2.35;;
45686;SDS011;31399;51.176;7.776;2023-05-29T12:37:58;7.22;;;2.55;;
45686;SDS011;31399;51.176;7.776;2023-05-29T12:40:26;8.35;;;1.98;;
45686;SDS011;31399;51.176;7.776;2023-05-29T12:42:56;9.10;;;2.05;;
45686;SDS011;31399;51.176;7.776;2023-05-29T12:45:24;12.13;;;2.00;;
45686;SDS011;31399;51.176;7.776;2023-05-29T12:47:55;7.55;;;1.70;;
45686;SDS011;31399;51.176;7.776;2023-05-29T12:50:24;6.70;;;1.75;;
45686;SDS011;31399;51.176;7.776;2023-05-29T12:55:21;7.32;;;2.03;;
45686;SDS011;31399;51.176;7.776;2023-05-29T12:57:48;8.80;;;2.05;;
45686;SDS011;31399;51.176;7.776;2023-05-29T13:00:15;6.22;;;1.98;;
45686;SDS011;31399;51.176;7.776;2023-05-29T13:02:41;8.68;;;2.10;;
45686;SDS011;31399;51.176;7.776;2023-05-29T13:05:08;4.53;;;1.98;;
45686;SDS011;31399;51.176;7.776;2023-05-29T13:07:36;8.75;;;1.85;;
45686;SDS011;31399;51.176;7.776;2023-05-29T13:10:02;9.00;;;2.20;;
45686;SDS011;31399;51.176;7.776;2023-05-29T13:12:29;6.45;;;1.98;;
45686;SDS011;31399;51.176;7.776;2023-05-29T13:14:56;9.65;;;2.13;;
45686;SDS011;31399;51.176;7.776;2023-05-29T13:17:22;7.03;;;1.63;;
45686;SDS011;31399;51.176;7.776;2023-05-29T13:19:49;5.18;;;2.15;;
45686;SDS011;31399;51.176;7.776;2023-05-29T13:22:16;10.90;;;2.40;;
45686;SDS011;31399;51.176;7.776;2023-05-29T13:24:42;11.35;;;2.10;;
45686;SDS011;31399;51.176;7.776;2023-05-29T13:27:09;6.55;;;2.00;;
45686;SDS011;31399;51.176;7.776;2023-05-29T13:29:36;12.77;;;2.22;;
45686;SDS011;31399;51.176;7.776;2023-05-29T13:32:02;10.68;;;2.17;;
45686;SDS011;31399;51.176;7.776;2023-05-29T13:34:29;7.25;;;1.80;;
45686;SDS011;31399;51.176;7.776;2023-05-29T13:36:56;7.43;;;1.90;;
45686;SDS011;31399;51.176;7.776;2023-05-29T13:39:22;7.80;;;2.10;;
45686;SDS011;31399;51.176;7.776;2023-05-29T13:41:49;12.27;;;1.98;;
45686;SDS011;31399;51.176;7.776;2023-05-29T13:44:16;7.63;;;2.35;;
45686;SDS011;31399;51.176;7.776;2023-05-29T13:46:42;9.27;;;2.13;;
45686;SDS011;31399;51.176;7.776;2023-05-29T13:49:09;11.52;;;2.20;;
45686;SDS011;31399;51.176;7.776;2023-05-29T13:51:36;10.70;;;2.25;;
45686;SDS011;31399;51.176;7.776;2023-05-29T13:54:03;6.55;;;2.03;;
45686;SDS011;31399;51.176;7.776;2023-05-29T13:56:30;9.10;;;1.80;;
45686;SDS011;31399;51.176;7.776;2023-05-29T13:58:57;10.25;;;2.00;;
45686;SDS011;31399;51.176;7.776;2023-05-29T14:01:25;9.13;;;1.98;;
45686;SDS011;31399;51.176;7.776;2023-05-29T14:03:52;6.55;;;1.75;;
45686;SDS011;31399;51.176;7.776;2023-05-29T14:06:19;9.15;;;2.05;;
45686;SDS011;31399;51.176;7.776;2023-05-29T14:08:45;5.85;;;1.77;;
45686;SDS011;31399;51.176;7.776;2023-05-29T14:11:12;9.20;;;2.20;;
45686;SDS011;31399;51.176;7.776;2023-05-29T14:13:39;14.27;;;2.08;;
45686;SDS011;31399;51.176;7.776;2023-05-29T14:16:05;5.15;;;1.80;;
45686;SDS011;31399;51.176;7.776;2023-05-29T14:18:33;15.23;;;2.70;;
45686;SDS011;31399;51.176;7.776;2023-05-29T14:20:59;7.75;;;2.38;;
45686;SDS011;31399;51.176;7.776;2023-05-29T14:23:26;10.40;;;2.60;;
45686;SDS011;31399;51.176;7.776;2023-05-29T14:25:52;11.18;;;1.88;;
45686;SDS011;31399;51.176;7.776;2023-05-29T14:28:19;7.10;;;1.45;;
45686;SDS011;31399;51.176;7.776;2023-05-29T14:30:46;8.68;;;2.55;;
45686;SDS011;31399;51.176;7.776;2023-05-29T14:33:13;12.02;;;3.03;;
45686;SDS011;31399;51.176;7.776;2023-05-29T14:35:39;9.98;;;1.92;;
45686;SDS011;31399;51.176;7.776;2023-05-29T14:38:06;5.10;;;1.85;;
45686;SDS011;31399;51.176;7.776;2023-05-29T14:40:32;7.75;;;2.60;;
45686;SDS011;31399;51.176;7.776;2023-05-29T14:43:00;12.05;;;2.80;;
45686;SDS011;31399;51.176;7.776;2023-05-29T14:45:26;7.07;;;1.98;;
45686;SDS011;31399;51.176;7.776;2023-05-29T14:47:53;6.20;;;1.88;;
45686;SDS011;31399;51.176;7.776;2023-05-29T14:50:20;6.78;;;1.67;;
45686;SDS011;31399;51.176;7.776;2023-05-29T14:52:46;6.22;;;1.63;;
45686;SDS011;31399;51.176;7.776;2023-05-29T14:55:16;6.78;;;2.50;;
45686;SDS011;31399;51.176;7.776;2023-05-29T14:57:43;7.53;;;1.42;;
45686;SDS011;31399;51.176;7.776;2023-05-29T15:00:09;5.25;;;1.75;;
45686;SDS011;31399;51.176;7.776;2023-05-29T15:02:36;5.72;;;1.95;;
45686;SDS011;31399;51.176;7.776;2023-05-29T15:05:06;3.45;;;1.50;;
45686;SDS011;31399;51.176;7.776;2023-05-29T15:07:33;7.40;;;2.08;;
45686;SDS011;31399;51.176;7.776;2023-05-29T15:10:00;4.50;;;1.95;;
45686;SDS011;31399;51.176;7.776;2023-05-29T15:12:27;4.97;;;2.00;;
45686;SDS011;31399;51.176;7.776;2023-05-29T15:14:53;6.03;;;1.92;;
45686;SDS011;31399;51.176;7.776;2023-05-29T15:17:20;7.68;;;1.88;;
45686;SDS011;31399;51.176;7.776;2023-05-29T15:19:47;4.03;;;1.38;;